createdAt,value
2018-12-12T00:02:41.000Z,1.40
2018-12-12T00:06:05.740Z,1.30
2018-12-12T00:09:30.454Z,1.40
2018-12-12T00:12:55.192Z,1.50
2018-12-12T00:16:19.910Z,1.50
2018-12-12T00:19:44.662Z,1.60
2018-12-12T00:23:09.380Z,1.60
2018-12-12T00:26:34.144Z,1.60
2018-12-12T00:29:58.866Z,1.50
2018-12-12T00:33:23.558Z,1.50
2018-12-12T00:36:48.305Z,1.50
2018-12-12T00:40:13.075Z,1.40
2018-12-12T00:43:37.769Z,1.40
2018-12-12T00:47:02.539Z,1.30
2018-12-12T00:50:27.251Z,1.20
2018-12-12T00:53:51.942Z,1.10
2018-12-12T00:57:16.789Z,1.00
2018-12-12T01:00:41.571Z,1.00
2018-12-12T01:04:06.324Z,1.00
2018-12-12T01:07:31.048Z,0.90
2018-12-12T01:11:00.894Z,0.80
2018-12-12T01:14:25.819Z,0.80
2018-12-12T01:17:50.485Z,0.80
2018-12-12T01:21:15.227Z,0.70
2018-12-12T01:24:39.907Z,0.60
2018-12-12T01:28:04.624Z,0.60
2018-12-12T01:31:29.308Z,0.50
2018-12-12T01:34:53.984Z,0.60
2018-12-12T01:38:18.775Z,0.70
2018-12-12T01:41:43.516Z,0.80
2018-12-12T01:45:08.586Z,1.00
2018-12-12T01:48:33.285Z,1.10
2018-12-12T01:51:58.041Z,1.30
2018-12-12T01:55:22.837Z,1.40
2018-12-12T01:58:47.581Z,1.50
2018-12-12T02:02:12.320Z,1.50
2018-12-12T02:05:37.071Z,1.60
2018-12-12T02:09:01.867Z,1.70
2018-12-12T02:12:26.598Z,1.80
2018-12-12T02:15:51.363Z,1.80
2018-12-12T02:19:16.076Z,1.90
2018-12-12T02:22:40.805Z,1.90
2018-12-12T02:26:05.496Z,1.90
2018-12-12T02:29:30.222Z,2.00
2018-12-12T02:32:54.935Z,2.10
2018-12-12T02:36:19.684Z,2.10
2018-12-12T02:39:44.452Z,2.20
2018-12-12T02:43:09.119Z,2.20
2018-12-12T02:46:33.774Z,2.30
2018-12-12T02:49:58.528Z,2.30
2018-12-12T02:53:23.281Z,2.30
2018-12-12T02:56:47.963Z,2.30
2018-12-12T03:00:12.657Z,2.40
2018-12-12T03:03:37.357Z,2.40
2018-12-12T03:07:02.086Z,2.50
2018-12-12T03:10:26.767Z,2.50
2018-12-12T03:13:51.712Z,2.50
2018-12-12T03:17:16.554Z,2.50
2018-12-12T03:20:41.291Z,2.50
2018-12-12T03:24:06.083Z,2.50
2018-12-12T03:27:30.970Z,2.50
2018-12-12T03:30:55.780Z,2.60
2018-12-12T03:34:20.471Z,2.60
2018-12-12T03:37:46.055Z,2.70
2018-12-12T03:41:10.890Z,2.70
2018-12-12T03:44:35.575Z,2.70
2018-12-12T03:48:00.331Z,2.70
2018-12-12T03:51:25.026Z,2.70
2018-12-12T03:54:49.695Z,2.70
2018-12-12T03:58:14.392Z,2.70
2018-12-12T04:01:39.155Z,2.70
2018-12-12T04:05:04.156Z,2.70
2018-12-12T04:08:28.886Z,2.70
2018-12-12T04:11:53.567Z,2.70
2018-12-12T04:15:18.338Z,2.70
2018-12-12T04:18:43.014Z,2.70
2018-12-12T04:22:07.768Z,2.70
2018-12-12T04:25:32.477Z,2.70
2018-12-12T04:28:57.247Z,2.60
2018-12-12T04:32:21.974Z,2.50
2018-12-12T04:35:46.661Z,2.50
2018-12-12T04:39:11.494Z,2.40
2018-12-12T04:42:36.228Z,2.30
2018-12-12T04:46:00.958Z,2.20
2018-12-12T04:49:25.625Z,2.20
2018-12-12T04:52:50.324Z,2.10
2018-12-12T04:56:15.082Z,2.00
2018-12-12T04:59:39.801Z,1.90
2018-12-12T05:03:04.760Z,1.90
2018-12-12T05:06:29.434Z,1.90
2018-12-12T05:09:54.142Z,1.90
2018-12-12T05:13:18.859Z,1.90
2018-12-12T05:16:43.561Z,1.80
2018-12-12T05:20:08.581Z,1.70
2018-12-12T05:23:33.270Z,1.60
2018-12-12T05:26:57.963Z,1.60
2018-12-12T05:30:22.636Z,1.50
2018-12-12T05:33:47.362Z,1.40
2018-12-12T05:37:12.011Z,1.30
2018-12-12T05:40:36.954Z,1.30
2018-12-12T05:44:01.690Z,1.30
2018-12-12T05:47:26.597Z,1.30
2018-12-12T05:50:51.246Z,1.30
2018-12-12T05:54:15.880Z,1.40
2018-12-12T05:57:40.565Z,1.50
2018-12-12T06:01:05.288Z,1.60
2018-12-12T06:04:30.004Z,1.70
2018-12-12T06:07:54.915Z,1.80
2018-12-12T06:11:19.678Z,1.80
2018-12-12T06:14:44.353Z,1.90
2018-12-12T06:18:09.048Z,1.90
2018-12-12T06:21:33.821Z,1.90
2018-12-12T06:24:59.630Z,1.90
2018-12-12T06:28:24.470Z,1.90
2018-12-12T06:31:49.132Z,1.90
2018-12-12T06:35:13.874Z,1.90
2018-12-12T06:38:38.564Z,1.90
2018-12-12T06:42:03.232Z,1.80
2018-12-12T06:45:27.932Z,1.90
2018-12-12T06:48:52.727Z,1.90
2018-12-12T06:52:17.433Z,1.90
2018-12-12T06:55:42.123Z,2.10
2018-12-12T06:59:06.770Z,2.20
2018-12-12T07:02:31.484Z,2.30
2018-12-12T07:09:31.852Z,2.30
2018-12-12T07:12:56.607Z,2.30
2018-12-12T07:16:21.367Z,2.30
2018-12-12T07:19:46.062Z,2.40
2018-12-12T07:23:10.759Z,2.40
2018-12-12T07:26:35.451Z,2.40
2018-12-12T07:30:00.147Z,2.40
2018-12-12T07:33:24.859Z,2.50
2018-12-12T07:36:49.545Z,2.50
2018-12-12T07:40:14.241Z,2.50
2018-12-12T07:43:38.851Z,2.50
2018-12-12T07:47:03.690Z,2.50
2018-12-12T07:50:28.380Z,2.60
2018-12-12T07:53:53.075Z,2.70
2018-12-12T07:57:17.760Z,2.70
2018-12-12T08:00:42.423Z,2.60
2018-12-12T08:04:07.119Z,2.70
2018-12-12T08:07:31.793Z,2.80
2018-12-12T08:10:56.478Z,2.90
2018-12-12T08:14:21.146Z,3.00
2018-12-12T08:17:45.889Z,3.00
2018-12-12T08:21:10.578Z,3.10
2018-12-12T08:24:35.254Z,3.10
2018-12-12T08:27:59.932Z,3.30
2018-12-12T08:31:24.576Z,3.30
2018-12-12T08:34:49.289Z,3.30
2018-12-12T08:38:13.921Z,3.40
2018-12-12T08:41:38.536Z,3.40
2018-12-12T08:45:03.520Z,3.50
2018-12-12T08:48:28.233Z,3.60
2018-12-12T08:51:52.911Z,3.60
2018-12-12T08:55:18.008Z,3.70
2018-12-12T08:58:42.765Z,3.80
2018-12-12T09:02:07.430Z,3.80
2018-12-12T09:05:32.445Z,3.90
2018-12-12T09:08:57.107Z,4.00
2018-12-12T09:12:21.784Z,4.10
2018-12-12T09:15:46.557Z,4.20
2018-12-12T09:19:11.299Z,4.20
2018-12-12T09:22:36.030Z,4.20
2018-12-12T09:26:00.676Z,4.20
2018-12-12T09:29:25.426Z,4.30
2018-12-12T09:32:50.062Z,4.30
2018-12-12T09:36:14.824Z,4.40
2018-12-12T09:39:40.949Z,4.40
2018-12-12T09:43:06.526Z,4.40
2018-12-12T09:46:31.661Z,4.50
2018-12-12T09:49:56.485Z,4.50
2018-12-12T09:53:21.337Z,4.60
2018-12-12T09:56:46.884Z,4.60
2018-12-12T10:00:11.694Z,4.60
2018-12-12T10:03:36.643Z,4.70
2018-12-12T10:07:01.582Z,4.70
2018-12-12T10:10:26.349Z,4.70
2018-12-12T10:13:51.137Z,5.20
2018-12-12T10:17:16.022Z,5.10
2018-12-12T10:20:40.731Z,5.00
2018-12-12T10:24:05.519Z,4.90
2018-12-12T10:27:30.276Z,5.60
2018-12-12T10:30:55.047Z,5.50
2018-12-12T10:34:19.800Z,5.40
2018-12-12T10:37:44.474Z,5.30
2018-12-12T10:41:09.225Z,5.30
2018-12-12T10:44:33.960Z,5.30
2018-12-12T10:47:58.994Z,5.40
2018-12-12T10:51:23.742Z,5.40
2018-12-12T10:54:48.440Z,5.50
2018-12-12T10:58:13.087Z,5.50
2018-12-12T11:01:43.028Z,5.60
2018-12-12T11:05:08.307Z,5.60
2018-12-12T11:08:33.053Z,5.60
2018-12-12T11:11:57.829Z,5.70
2018-12-12T11:15:23.071Z,5.70
2018-12-12T11:18:47.717Z,5.70
2018-12-12T11:22:12.543Z,5.70
2018-12-12T11:25:37.286Z,5.70
2018-12-12T11:29:02.119Z,5.60
2018-12-12T11:32:26.935Z,5.60
2018-12-12T11:35:52.125Z,5.60
2018-12-12T11:39:17.117Z,5.50
2018-12-12T11:42:43.103Z,5.50
2018-12-12T11:46:07.849Z,5.60
2018-12-12T11:49:32.653Z,5.60
2018-12-12T11:52:57.394Z,5.70
2018-12-12T11:56:22.076Z,5.80
2018-12-12T11:59:46.801Z,5.80
2018-12-12T12:03:11.468Z,5.80
2018-12-12T12:06:36.105Z,6.00
2018-12-12T12:10:00.775Z,6.10
2018-12-12T12:13:25.586Z,6.30
2018-12-12T12:16:50.276Z,6.30
2018-12-12T12:20:14.991Z,6.30
2018-12-12T12:23:39.691Z,6.20
2018-12-12T12:27:04.477Z,6.20
2018-12-12T12:30:29.153Z,6.10
2018-12-12T12:33:54.035Z,6.10
2018-12-12T12:37:18.731Z,6.10
2018-12-12T12:40:43.484Z,6.10
2018-12-12T12:44:08.202Z,6.10
2018-12-12T12:47:32.912Z,6.10
2018-12-12T12:50:57.617Z,6.10
2018-12-12T12:54:22.260Z,6.10
2018-12-12T12:57:46.990Z,6.00
2018-12-12T13:01:11.667Z,6.00
2018-12-12T13:04:36.400Z,5.90
2018-12-12T13:08:01.089Z,5.80
2018-12-12T13:11:25.740Z,5.90
2018-12-12T13:14:50.424Z,6.00
2018-12-12T13:18:15.285Z,6.20
2018-12-12T13:21:40.010Z,6.20
2018-12-12T13:25:04.710Z,6.00
2018-12-12T13:28:31.840Z,5.70
2018-12-12T13:31:56.821Z,5.50
2018-12-12T13:35:21.487Z,5.30
2018-12-12T13:38:46.119Z,5.10
2018-12-12T13:42:10.842Z,5.00
2018-12-12T13:45:35.516Z,4.90
2018-12-12T13:49:00.204Z,4.80
2018-12-12T13:52:24.990Z,5.70
2018-12-12T13:55:49.799Z,6.00
2018-12-12T13:59:14.462Z,5.80
2018-12-12T14:02:39.239Z,5.60
2018-12-12T14:06:04.091Z,5.30
2018-12-12T14:09:28.716Z,5.20
2018-12-12T14:12:53.389Z,5.00
2018-12-12T14:16:18.004Z,5.00
2018-12-12T14:19:42.667Z,5.00
2018-12-12T14:23:07.397Z,5.00
2018-12-12T14:26:32.103Z,5.10
2018-12-12T14:29:56.769Z,5.10
2018-12-12T14:33:21.511Z,5.00
2018-12-12T14:36:46.217Z,4.80
2018-12-12T14:40:10.945Z,4.70
2018-12-12T14:43:35.822Z,4.60
2018-12-12T14:47:00.484Z,4.40
2018-12-12T14:50:25.281Z,4.20
2018-12-12T14:53:49.970Z,4.00
2018-12-12T14:57:14.685Z,3.80
2018-12-12T15:00:39.434Z,3.70
2018-12-12T15:04:04.125Z,3.60
2018-12-12T15:07:28.780Z,3.50
2018-12-12T15:10:53.484Z,3.40
2018-12-12T15:14:18.190Z,3.40
2018-12-12T15:17:42.881Z,3.40
2018-12-12T15:21:07.546Z,3.40
2018-12-12T15:24:32.212Z,3.30
2018-12-12T15:27:56.955Z,3.30
2018-12-12T15:31:21.631Z,3.30
2018-12-12T15:34:46.316Z,3.30
2018-12-12T15:38:10.989Z,3.40
2018-12-12T15:41:36.240Z,3.30
2018-12-12T15:45:00.922Z,3.30
2018-12-12T15:48:25.601Z,3.30
2018-12-12T15:51:50.336Z,3.30
2018-12-12T15:55:15.075Z,3.30
2018-12-12T15:58:39.835Z,3.30
2018-12-12T16:02:04.718Z,3.20
2018-12-12T16:05:29.396Z,3.20
2018-12-12T16:08:54.113Z,3.10
2018-12-12T16:12:18.795Z,3.00
2018-12-12T16:15:43.519Z,2.80
2018-12-12T16:19:08.227Z,2.70
2018-12-12T16:22:32.949Z,2.60
2018-12-12T16:25:57.636Z,2.60
2018-12-12T16:29:22.408Z,2.50
2018-12-12T16:32:47.291Z,2.50
2018-12-12T16:36:12.015Z,2.50
2018-12-12T16:39:36.755Z,2.40
2018-12-12T16:43:01.566Z,2.40
2018-12-12T16:46:26.284Z,2.30
2018-12-12T16:49:51.030Z,2.30
2018-12-12T16:53:16.620Z,2.30
2018-12-12T16:56:41.382Z,2.30
2018-12-12T17:00:08.709Z,2.20
2018-12-12T17:03:33.411Z,2.20
2018-12-12T17:06:58.148Z,2.10
2018-12-12T17:10:22.830Z,2.10
2018-12-12T17:13:47.548Z,2.10
2018-12-12T17:17:12.205Z,2.10
2018-12-12T17:20:36.929Z,2.10
2018-12-12T17:24:01.633Z,2.10
2018-12-12T17:27:26.323Z,2.00
2018-12-12T17:30:51.029Z,2.00
2018-12-12T17:34:15.734Z,2.00
2018-12-12T17:37:40.467Z,2.00
2018-12-12T17:41:05.201Z,2.10
2018-12-12T17:44:29.799Z,2.00
2018-12-12T17:47:54.512Z,2.00
2018-12-12T17:51:19.242Z,1.90
2018-12-12T17:54:43.967Z,1.90
2018-12-12T17:58:08.649Z,1.90
2018-12-12T18:01:33.377Z,1.90
2018-12-12T18:04:58.093Z,1.90
2018-12-12T18:08:22.741Z,1.80
2018-12-12T18:11:47.406Z,1.80
2018-12-12T18:15:12.087Z,1.80
2018-12-12T18:18:36.742Z,1.80
2018-12-12T18:22:01.422Z,1.80
2018-12-12T18:25:26.071Z,1.80
2018-12-12T18:28:50.776Z,1.80
2018-12-12T18:32:15.450Z,1.80
2018-12-12T18:35:40.439Z,1.70
2018-12-12T18:39:07.709Z,1.70
2018-12-12T18:42:32.473Z,1.60
2018-12-12T18:45:57.233Z,1.60
2018-12-12T18:49:21.919Z,1.50
2018-12-12T18:52:46.608Z,1.50
2018-12-12T18:56:11.410Z,1.60
2018-12-12T18:59:36.110Z,1.50
2018-12-12T19:03:01.461Z,1.60
2018-12-12T19:06:26.143Z,1.60
2018-12-12T19:09:50.868Z,1.50
2018-12-12T19:13:16.457Z,1.60
2018-12-12T19:16:41.281Z,1.50
2018-12-12T19:20:07.701Z,1.50
2018-12-12T19:23:32.551Z,1.40
2018-12-12T19:26:57.263Z,1.40
2018-12-12T19:30:21.944Z,1.30
2018-12-12T19:33:46.640Z,1.30
2018-12-12T19:37:11.384Z,1.20
2018-12-12T19:40:36.103Z,1.20
2018-12-12T19:44:00.784Z,1.10
2018-12-12T19:47:25.521Z,1.10
2018-12-12T19:50:50.372Z,1.10
2018-12-12T19:54:15.097Z,1.00
2018-12-12T19:57:39.905Z,1.00
2018-12-12T20:01:04.634Z,1.00
2018-12-12T20:04:29.375Z,0.90
2018-12-12T20:07:54.072Z,0.90
2018-12-12T20:11:18.773Z,0.90
2018-12-12T20:14:43.447Z,0.90
2018-12-12T20:18:08.138Z,0.90
2018-12-12T20:21:32.910Z,0.80
2018-12-12T20:24:57.609Z,0.80
2018-12-12T20:28:22.394Z,0.80
2018-12-12T20:31:47.113Z,0.80
2018-12-12T20:35:11.840Z,0.80
2018-12-12T20:38:36.565Z,1.00
2018-12-12T20:42:01.282Z,1.20
2018-12-12T20:45:26.073Z,1.40
2018-12-12T20:48:51.769Z,1.70
2018-12-12T20:52:16.469Z,1.90
2018-12-12T20:55:41.317Z,2.10
2018-12-12T20:59:06.353Z,2.30
2018-12-12T21:02:31.039Z,2.40
2018-12-12T21:05:56.290Z,2.50
2018-12-12T21:09:21.268Z,2.50
2018-12-12T21:12:46.576Z,2.60
2018-12-12T21:16:12.210Z,2.60
2018-12-12T21:19:37.560Z,2.70
2018-12-12T21:23:02.570Z,2.70
2018-12-12T21:26:27.680Z,2.80
2018-12-12T21:29:52.546Z,2.80
2018-12-12T21:33:17.538Z,2.90
2018-12-12T21:36:42.343Z,2.90
2018-12-12T21:40:07.281Z,3.00
2018-12-12T21:43:32.112Z,3.00
2018-12-12T21:46:56.823Z,3.10
2018-12-12T21:50:21.636Z,3.10
2018-12-12T21:53:47.978Z,3.10
2018-12-12T21:57:13.113Z,3.10
2018-12-12T22:00:37.886Z,3.10
2018-12-12T22:08:06.491Z,3.20
2018-12-12T22:15:13.336Z,3.20
2018-12-12T22:18:39.832Z,3.30
2018-12-12T22:22:16.142Z,3.30
2018-12-12T22:25:40.912Z,3.30
2018-12-12T22:32:58.853Z,3.30
2018-12-12T22:36:23.840Z,3.30
2018-12-12T22:39:48.572Z,3.30
2018-12-12T22:43:13.432Z,3.30
2018-12-12T22:46:38.313Z,3.40
2018-12-12T22:50:03.178Z,3.40
2018-12-12T22:53:27.895Z,3.40
2018-12-12T22:56:52.596Z,3.40
2018-12-12T23:00:22.536Z,3.40
2018-12-12T23:03:47.227Z,3.40
2018-12-12T23:07:11.919Z,3.40
2018-12-12T23:10:36.637Z,3.40
2018-12-12T23:14:01.282Z,3.40
2018-12-12T23:17:25.998Z,3.40
2018-12-12T23:20:50.653Z,3.40
2018-12-12T23:24:15.379Z,3.40
2018-12-12T23:27:40.072Z,3.30
2018-12-12T23:31:04.770Z,3.30
2018-12-12T23:34:29.517Z,3.30
2018-12-12T23:37:54.273Z,3.40
2018-12-12T23:41:19.037Z,3.40
2018-12-12T23:44:43.789Z,3.40
2018-12-12T23:48:08.448Z,3.40
2018-12-12T23:51:34.786Z,3.40
2018-12-12T23:54:59.431Z,3.40
2018-12-12T23:58:24.059Z,3.40
